Details for EasyJet at EGMC




Go Back


Latest METAR
Local Time

EGMC 232350Z 09008KT 9999 FEW031 01/M03 Q1020

24/02/2018, 00:15:12

Description
Results
EasyJet Logo
Number of Pilots based at EGMC
1 Pilots Based here
Number of EasyJet Flights Departed from EGMC
2 Flights Departed
Number of EasyJet Flights Arrived at EGMC
0 Flights Arrived
Number of EasyJet Schedules Departing from EGMC
27 Schedules
Number of EasyJet Schedules Arriving at EGMC
27 Schedules
Number of EasyJet Schedules Departing from EGMC availible today
10 Schedules Today
Number of EasyJet Schedules Arriving at EGMC availible today
10 Schedules Today
Average Landing Rate at EGMC
-331 fpm
EasyJet Average Landing Rate at EGMC
0 fpm
Total Fuel Purchased at EGMC by EasyJet
6,565.30 kgs / 14,473.86 lbs

Pilots Based at EGMC


Pilot ID
Pilot Name
Pilot Rank
No. of Flights
No. of Flying Hours
Alex Shorey
0
0
Content